Airfield :
LOGIN :

Register | Disclaimer

   EN    FR    IT 

 










Legend :    VFR   Marginal VFR   IFR   Intensive IFR   Very Intensive IFR
Visi :
Ceiling :
>= 8 km
>= 3000ft
5 to 8 km
1000 to 3000 ft
1500m to 5 km
500 to 1000 ft
800 to 1500m
200 to 500 ft
< 800m
< 200 ft
Symbols :   Thunderstorms  Fog  Heavy snow  Heavy precipitations  Wind > 20 kt
SIGMETs :     Misc.  Thunderstorms  Icing  Turbulence  Mountain Waves  Volcanic Ashes







- Airport Elevation : 844 ft
- IATA code : OSR


LKMT - Ostrava-Mosnov

CURRENT METAR :
  • 251530Z 03010KT 9000 -SN DRSN BKN028 M10/M15 Q1026 R04/490494 NOSIG

EXPIRED METARs :
  • 251500Z 02011KT 9999 -SN DRSN BKN030 M10/M16 Q1025 R04/490494 NOSIG
  • 251430Z 03013KT 8000 -SN BKN030 M10/M16 Q1025 R04/490494 NOSIG
  • 251400Z 02013KT 8000 -SN DRSN BKN031 M10/M16 Q1026 R04/490494 NOSIG
  • 251330Z 03013KT 8000 -SN DRSN FEW027 BKN032 M10/M16 Q1026 R04/490494 NOSIG
  • 251300Z 03013KT 8000 -SN DRSN BKN030 M10/M16 Q1026 R04/490494 NOSIG

TAF TAF LKMT
Valid from the 25 at 12:00 until the 26 at 18:00 UTC


251100Z 2512/2618 02010KT 9999 BKN026
TEMPO 2512/2618 2500 -SN BKN010
PROB30
TEMPO 2512/2618 05014G24KT
No reported NOTAMs for that airfield.



MET'MAP, your aeronautical weather chart ! - Copyright ORBIFLY December 2007 - Disclaimer

ORBIFLY MET'MAP TEAM :

Programming & Development : Alexandra Zaïnal
Concept & Development : Baudouin d'Aumeries
Co-Development & Prog : Marc-Olivier Méhu
Technical & hardware support : Manuel Goepfert

Contact : metmap@orbifly.com




SOURCES & CREDITS :

   NOAA